createdAt,value
2018-05-15T00:00:46.253Z,101273.35
2018-05-15T00:03:15.387Z,101283.36
2018-05-15T00:05:44.855Z,101287.16
2018-05-15T00:08:14.224Z,101278.28
2018-05-15T00:10:43.429Z,101272.19
2018-05-15T00:13:12.573Z,101276.45
2018-05-15T00:15:41.849Z,101277.25
2018-05-15T00:18:11.054Z,101287.13
2018-05-15T00:20:40.109Z,101272.49
2018-05-15T00:23:09.956Z,101267.44
2018-05-15T00:25:39.354Z,101269.64
2018-05-15T00:28:08.814Z,101260.79
2018-05-15T00:30:38.049Z,101275.41
2018-05-15T00:33:07.418Z,101274.66
2018-05-15T00:35:36.717Z,101260.56
2018-05-15T00:38:05.871Z,101275.14
2018-05-15T00:40:35.322Z,101264.67
2018-05-15T00:43:04.368Z,101263.74
2018-05-15T00:45:33.740Z,101268.40
2018-05-15T00:48:03.067Z,101274.88
2018-05-15T00:50:32.214Z,101267.66
2018-05-15T00:53:01.730Z,101260.89
2018-05-15T00:55:42.863Z,101260.04
2018-05-15T00:58:11.965Z,101256.45
2018-05-15T01:00:41.192Z,101259.23
2018-05-15T01:03:10.844Z,101255.22
2018-05-15T01:05:40.281Z,101240.91
2018-05-15T01:08:09.391Z,101257.64
2018-05-15T01:10:38.611Z,101252.70
2018-05-15T01:13:08.276Z,101259.88
2018-05-15T01:15:37.439Z,101252.09
2018-05-15T01:18:06.744Z,101243.66
2018-05-15T01:20:36.040Z,101235.17
2018-05-15T01:23:05.332Z,101241.98
2018-05-15T01:25:34.578Z,101231.67
2018-05-15T01:28:08.560Z,101240.64
2018-05-15T01:30:37.807Z,101230.66
2018-05-15T01:33:07.145Z,101246.27
2018-05-15T01:35:36.373Z,101230.73
2018-05-15T01:38:05.632Z,101255.59
2018-05-15T01:40:34.868Z,101232.73
2018-05-15T01:43:03.974Z,101243.29
2018-05-15T01:45:33.083Z,101233.87
2018-05-15T01:48:02.396Z,101239.74
2018-05-15T01:50:31.500Z,101245.45
2018-05-15T01:53:00.632Z,101242.39
2018-05-15T01:55:30.273Z,101251.11
2018-05-15T01:57:59.480Z,101236.77
2018-05-15T02:00:28.648Z,101247.13
2018-05-15T02:02:57.695Z,101240.80
2018-05-15T02:05:26.844Z,101226.50
2018-05-15T02:07:56.526Z,101239.82
2018-05-15T02:10:25.537Z,101247.27
2018-05-15T02:12:54.937Z,101239.36
2018-05-15T02:15:24.064Z,101242.34
2018-05-15T02:17:53.248Z,101248.04
2018-05-15T02:20:22.587Z,101248.09
2018-05-15T02:22:51.588Z,101252.78
2018-05-15T02:25:20.847Z,101251.83
2018-05-15T02:27:50.163Z,101248.73
2018-05-15T02:30:19.499Z,101261.38
2018-05-15T02:32:48.620Z,101258.08
2018-05-15T02:35:17.760Z,101255.17
2018-05-15T02:37:46.841Z,101242.39
2018-05-15T02:40:16.071Z,101255.19
2018-05-15T02:42:45.778Z,101251.59
2018-05-15T02:45:14.824Z,101264.52
2018-05-15T02:47:44.172Z,101256.54
2018-05-15T02:50:13.199Z,101249.04
2018-05-15T02:52:42.902Z,101256.17
2018-05-15T02:55:12.352Z,101261.80
2018-05-15T02:57:41.396Z,101254.70
2018-05-15T03:00:10.734Z,101257.14
2018-05-15T03:02:39.913Z,101270.03
2018-05-15T03:05:09.114Z,101258.83
2018-05-15T03:07:38.422Z,101268.03
2018-05-15T03:10:07.394Z,101266.08
2018-05-15T03:12:36.604Z,101279.90
2018-05-15T03:15:05.787Z,101270.65
2018-05-15T03:17:34.896Z,101276.55
2018-05-15T03:20:04.267Z,101281.37
2018-05-15T03:22:33.626Z,101283.45
2018-05-15T03:25:02.600Z,101273.69
2018-05-15T03:27:31.898Z,101272.51
2018-05-15T03:30:01.078Z,101277.22
2018-05-15T03:32:30.098Z,101270.48
2018-05-15T03:34:59.124Z,101276.04
2018-05-15T03:37:28.225Z,101271.41
2018-05-15T03:39:57.323Z,101271.22
2018-05-15T03:42:26.316Z,101269.19
2018-05-15T03:44:55.474Z,101267.52
2018-05-15T03:47:24.689Z,101267.58
2018-05-15T03:49:53.718Z,101264.27
2018-05-15T03:52:22.948Z,101260.36
2018-05-15T03:54:52.345Z,101268.75
2018-05-15T03:57:21.441Z,101275.61
2018-05-15T03:59:50.476Z,101273.37
2018-05-15T04:02:31.163Z,101262.53
2018-05-15T04:05:12.384Z,101280.41
2018-05-15T04:08:04.831Z,101276.98
2018-05-15T04:10:33.927Z,101283.39
2018-05-15T04:13:02.972Z,101284.56
2018-05-15T04:15:32.201Z,101285.31
2018-05-15T04:18:01.498Z,101289.98
2018-05-15T04:20:30.545Z,101291.30
2018-05-15T04:22:59.816Z,101285.83
2018-05-15T04:25:29.244Z,101289.23
2018-05-15T04:27:58.528Z,101291.94
2018-05-15T04:30:27.627Z,101298.91
2018-05-15T04:32:56.754Z,101292.27
2018-05-15T04:35:25.961Z,101290.50
2018-05-15T04:37:55.184Z,101297.89
2018-05-15T04:40:24.621Z,101297.28
2018-05-15T04:42:53.876Z,101290.15
2018-05-15T04:45:23.012Z,101295.30
2018-05-15T04:47:52.172Z,101294.22
2018-05-15T04:50:21.471Z,101306.48
2018-05-15T04:52:51.006Z,101297.95
2018-05-15T04:55:20.532Z,101303.16
2018-05-15T04:57:49.572Z,101314.50
2018-05-15T05:00:18.764Z,101311.52
2018-05-15T05:02:47.948Z,101304.55
2018-05-15T05:05:17.755Z,101307.67
2018-05-15T05:07:47.021Z,101310.17
2018-05-15T05:10:16.425Z,101313.48
2018-05-15T05:12:45.744Z,101314.32
2018-05-15T05:15:15.212Z,101320.69
2018-05-15T05:17:44.438Z,101313.59
2018-05-15T05:20:13.516Z,101314.05
2018-05-15T05:22:43.033Z,101315.50
2018-05-15T05:25:12.124Z,101320.77
2018-05-15T05:27:41.408Z,101316.21
2018-05-15T05:30:10.839Z,101313.71
2018-05-15T05:32:40.200Z,101319.98
2018-05-15T05:35:09.866Z,101317.52
2018-05-15T05:37:39.141Z,101310.05
2018-05-15T05:40:08.350Z,101310.33
2018-05-15T05:42:37.543Z,101310.42
2018-05-15T05:45:06.845Z,101313.58
2018-05-15T05:47:35.817Z,101318.31
2018-05-15T05:50:04.928Z,101302.92
2018-05-15T05:52:33.928Z,101310.28
2018-05-15T05:55:03.457Z,101312.75
2018-05-15T05:57:32.802Z,101310.70
2018-05-15T06:00:02.130Z,101314.47
2018-05-15T06:02:31.280Z,101320.93
2018-05-15T06:05:00.528Z,101321.29
2018-05-15T06:07:29.720Z,101319.42
2018-05-15T06:09:58.990Z,101318.71
2018-05-15T06:12:28.448Z,101317.91
2018-05-15T06:14:57.594Z,101323.48
2018-05-15T06:17:26.816Z,101320.77
2018-05-15T06:19:55.927Z,101325.17
2018-05-15T06:22:24.916Z,101319.86
2018-05-15T06:24:54.148Z,101314.39
2018-05-15T06:27:23.614Z,101316.64
2018-05-15T06:29:52.658Z,101313.83
2018-05-15T06:32:21.964Z,101321.78
2018-05-15T06:34:52.000Z,101318.45
2018-05-15T06:37:21.279Z,101319.58
2018-05-15T06:39:50.645Z,101317.09
2018-05-15T06:42:20.173Z,101310.69
2018-05-15T06:44:49.752Z,101315.47
2018-05-15T06:47:18.815Z,101310.17
2018-05-15T06:49:48.051Z,101311.73
2018-05-15T06:52:17.388Z,101313.98
2018-05-15T06:54:46.997Z,101305.26
2018-05-15T06:57:21.724Z,101303.23
2018-05-15T06:59:51.112Z,101311.26
2018-05-15T07:02:20.608Z,101309.94
2018-05-15T07:04:49.732Z,101310.14
2018-05-15T07:07:18.954Z,101314.48
2018-05-15T07:09:47.996Z,101309.64
2018-05-15T07:12:17.399Z,101315.89
2018-05-15T07:14:46.584Z,101308.09
2018-05-15T07:17:16.344Z,101307.89
2018-05-15T07:19:45.971Z,101311.52
2018-05-15T07:22:15.664Z,101309.42
2018-05-15T07:24:45.252Z,101308.67
2018-05-15T07:27:14.306Z,101310.17
2018-05-15T07:29:43.670Z,101308.69
2018-05-15T07:32:14.600Z,101312.55
2018-05-15T07:34:43.964Z,101310.23
2018-05-15T07:37:13.825Z,101315.77
2018-05-15T07:39:42.984Z,101313.56
2018-05-15T07:42:12.181Z,101312.64
2018-05-15T07:44:41.466Z,101314.36
2018-05-15T07:47:10.703Z,101304.48
2018-05-15T07:49:40.025Z,101307.16
2018-05-15T07:52:09.505Z,101299.52
2018-05-15T07:54:38.708Z,101299.54
2018-05-15T07:57:08.235Z,101302.03
2018-05-15T07:59:37.577Z,101300.72
2018-05-15T08:02:07.128Z,101303.71
2018-05-15T08:04:36.226Z,101314.70
2018-05-15T08:07:05.654Z,101311.45
2018-05-15T08:09:34.924Z,101305.39
2018-05-15T08:12:04.072Z,101307.34
2018-05-15T08:14:33.180Z,101304.17
2018-05-15T08:17:02.370Z,101305.84
2018-05-15T08:19:31.559Z,101299.41
2018-05-15T08:22:00.727Z,101297.95
2018-05-15T08:24:29.915Z,101299.92
2018-05-15T08:26:59.443Z,101295.63
2018-05-15T08:29:28.776Z,101299.73
2018-05-15T08:31:58.142Z,101300.12
2018-05-15T08:34:27.316Z,101307.11
2018-05-15T08:36:56.464Z,101302.92
2018-05-15T08:39:25.729Z,101304.62
2018-05-15T08:41:54.832Z,101295.88
2018-05-15T08:44:23.860Z,101285.81
2018-05-15T08:46:53.017Z,101288.53
2018-05-15T08:49:22.152Z,101292.91
2018-05-15T08:51:51.637Z,101295.80
2018-05-15T08:54:20.744Z,101288.45
2018-05-15T08:56:49.874Z,101303.26
2018-05-15T08:59:19.337Z,101296.05
2018-05-15T09:01:48.742Z,101298.92
2018-05-15T09:04:17.740Z,101295.34
2018-05-15T09:06:47.651Z,101300.86
2018-05-15T09:09:16.944Z,101302.86
2018-05-15T09:11:46.032Z,101295.88
2018-05-15T09:14:15.019Z,101301.02
2018-05-15T09:16:44.296Z,101297.39
2018-05-15T09:19:13.947Z,101301.98
2018-05-15T09:21:43.176Z,101301.47
2018-05-15T09:24:12.318Z,101294.39
2018-05-15T09:26:41.325Z,101294.87
2018-05-15T09:29:13.190Z,101296.59
2018-05-15T09:31:42.679Z,101294.47
2018-05-15T09:34:11.880Z,101300.26
2018-05-15T09:36:40.967Z,101299.69
2018-05-15T09:39:10.441Z,101291.52
2018-05-15T09:41:39.668Z,101294.91
2018-05-15T09:44:09.222Z,101292.53
2018-05-15T09:46:38.697Z,101294.41
2018-05-15T09:49:08.114Z,101290.86
2018-05-15T09:51:37.437Z,101291.91
2018-05-15T09:54:06.751Z,101281.08
2018-05-15T09:56:35.952Z,101277.80
2018-05-15T09:59:05.349Z,101273.23
2018-05-15T10:01:34.682Z,101277.48
2018-05-15T10:04:03.767Z,101273.02
2018-05-15T10:06:33.238Z,101271.82
2018-05-15T10:09:02.745Z,101280.63
2018-05-15T10:11:32.198Z,101274.58
2018-05-15T10:14:01.640Z,101272.06
2018-05-15T10:16:30.743Z,101269.75
2018-05-15T10:18:59.752Z,101267.66
2018-05-15T10:21:29.253Z,101259.69
2018-05-15T10:23:58.410Z,101263.55
2018-05-15T10:26:27.566Z,101261.20
2018-05-15T10:28:56.624Z,101264.63
2018-05-15T10:31:26.051Z,101267.64
2018-05-15T10:33:55.268Z,101259.75
2018-05-15T10:36:24.467Z,101264.86
2018-05-15T10:38:53.670Z,101254.37
2018-05-15T10:41:23.068Z,101245.61
2018-05-15T10:43:52.318Z,101252.86
2018-05-15T10:46:21.594Z,101251.03
2018-05-15T10:48:50.688Z,101253.64
2018-05-15T10:51:19.990Z,101245.00
2018-05-15T10:53:49.277Z,101235.75
2018-05-15T10:56:18.424Z,101225.52
2018-05-15T10:58:47.643Z,101237.01
2018-05-15T11:01:16.904Z,101233.14
2018-05-15T11:03:46.021Z,101238.38
2018-05-15T11:06:15.323Z,101232.95
2018-05-15T11:08:44.434Z,101229.89
2018-05-15T11:11:13.716Z,101226.65
2018-05-15T11:13:42.855Z,101228.70
2018-05-15T11:16:12.009Z,101224.66
2018-05-15T11:18:42.177Z,101227.50
2018-05-15T11:21:22.844Z,101217.55
2018-05-15T11:24:12.980Z,101215.73
2018-05-15T11:26:42.524Z,101217.17
2018-05-15T11:29:11.710Z,101213.52
2018-05-15T11:31:40.756Z,101215.55
2018-05-15T11:34:10.206Z,101207.55
2018-05-15T11:36:39.340Z,101213.45
2018-05-15T11:39:08.480Z,101216.70
2018-05-15T11:41:37.882Z,101219.53
2018-05-15T11:44:06.976Z,101217.84
2018-05-15T11:46:36.303Z,101216.47
2018-05-15T11:49:06.845Z,101209.04
2018-05-15T11:51:35.722Z,101212.81
2018-05-15T11:54:04.420Z,101215.48
2018-05-15T11:56:33.656Z,101213.95
2018-05-15T11:59:03.014Z,101210.02
2018-05-15T12:01:32.437Z,101207.23
2018-05-15T12:04:01.570Z,101208.10
2018-05-15T12:06:31.105Z,101205.25
2018-05-15T12:09:00.968Z,101195.38
2018-05-15T12:11:30.130Z,101197.83
2018-05-15T12:13:59.603Z,101195.84
2018-05-15T12:16:28.943Z,101184.88
2018-05-15T12:18:58.295Z,101188.86
2018-05-15T12:21:27.742Z,101197.77
2018-05-15T12:23:56.800Z,101198.63
2018-05-15T12:26:26.112Z,101191.34
2018-05-15T12:28:55.324Z,101186.42
2018-05-15T12:31:24.543Z,101186.68
2018-05-15T12:33:53.536Z,101188.45
2018-05-15T12:36:22.731Z,101179.49
2018-05-15T12:38:51.977Z,101181.23
2018-05-15T12:41:21.242Z,101180.34
2018-05-15T12:43:50.272Z,101176.86
2018-05-15T12:46:19.557Z,101181.58
2018-05-15T12:48:49.032Z,101176.69
2018-05-15T12:51:18.241Z,101180.81
2018-05-15T12:53:47.319Z,101171.50
2018-05-15T12:56:16.635Z,101164.23
2018-05-15T12:58:45.808Z,101166.84
2018-05-15T13:01:15.206Z,101163.36
2018-05-15T13:03:44.974Z,101144.91
2018-05-15T13:06:14.708Z,101154.22
2018-05-15T13:08:44.189Z,101152.19
2018-05-15T13:11:13.588Z,101141.00
2018-05-15T13:13:42.757Z,101140.98
2018-05-15T13:16:12.672Z,101134.22
2018-05-15T13:18:42.027Z,101126.70
2018-05-15T13:21:11.424Z,101127.88
2018-05-15T13:23:42.097Z,101123.41
2018-05-15T13:26:11.418Z,101116.98
2018-05-15T13:28:40.751Z,101116.02
2018-05-15T13:31:10.029Z,101106.81
2018-05-15T13:33:39.352Z,101109.78
2018-05-15T13:36:08.982Z,101105.05
2018-05-15T13:38:38.257Z,101102.23
2018-05-15T13:41:09.257Z,101102.42
2018-05-15T13:43:38.577Z,101101.22
2018-05-15T13:46:07.854Z,101087.99
2018-05-15T13:48:36.992Z,101079.02
2018-05-15T13:51:06.128Z,101081.09
2018-05-15T13:53:35.514Z,101082.33
2018-05-15T13:56:05.158Z,101081.59
2018-05-15T13:58:34.622Z,101079.69
2018-05-15T14:01:04.125Z,101079.83
2018-05-15T14:03:33.492Z,101077.80
2018-05-15T14:06:02.651Z,101077.47
2018-05-15T14:08:32.077Z,101078.84
2018-05-15T14:11:01.330Z,101084.48
2018-05-15T14:13:30.559Z,101079.41
2018-05-15T14:15:59.684Z,101060.90
2018-05-15T14:18:28.851Z,101069.22
2018-05-15T14:20:58.254Z,101067.37
2018-05-15T14:23:27.428Z,101069.67
2018-05-15T14:25:56.509Z,101063.03
2018-05-15T14:28:25.675Z,101070.42
2018-05-15T14:30:54.768Z,101062.80
2018-05-15T14:33:24.097Z,101058.55
2018-05-15T14:35:53.429Z,101063.13
2018-05-15T14:38:23.056Z,101059.88
2018-05-15T14:40:52.225Z,101063.59
2018-05-15T14:43:22.344Z,101053.57
2018-05-15T14:45:51.570Z,101048.00
2018-05-15T14:48:20.622Z,101048.97
2018-05-15T14:54:07.457Z,101027.27
2018-05-15T14:56:36.872Z,101025.96
2018-05-15T14:59:06.134Z,101025.48
2018-05-15T15:01:35.639Z,101027.19
2018-05-15T15:04:04.812Z,101019.84
2018-05-15T15:06:33.828Z,101025.62
2018-05-15T15:09:02.942Z,101029.81
2018-05-15T15:11:32.252Z,101022.04
2018-05-15T15:14:01.474Z,101025.92
2018-05-15T15:16:30.879Z,101033.60
2018-05-15T15:19:00.098Z,101031.75
2018-05-15T15:21:29.274Z,101040.74
2018-05-15T15:23:58.338Z,101034.34
2018-05-15T15:26:27.710Z,101033.99
2018-05-15T15:28:57.035Z,101032.17
2018-05-15T15:31:26.193Z,101025.18
2018-05-15T15:33:55.575Z,101033.44
2018-05-15T15:36:25.043Z,101032.59
2018-05-15T15:38:54.141Z,101020.48
2018-05-15T15:41:23.614Z,101023.78
2018-05-15T15:43:52.870Z,101022.63
2018-05-15T15:46:22.143Z,101023.69
2018-05-15T15:48:51.388Z,101020.80
2018-05-15T15:51:20.484Z,101028.28
2018-05-15T15:53:49.548Z,101033.05
2018-05-15T15:56:18.720Z,101028.65
2018-05-15T15:58:47.836Z,101033.84
2018-05-15T16:01:16.897Z,101032.33
2018-05-15T16:03:46.352Z,101040.52
2018-05-15T16:06:15.478Z,101039.34
2018-05-15T16:08:44.764Z,101054.83
2018-05-15T16:11:13.857Z,101050.59
2018-05-15T16:13:43.046Z,101057.02
2018-05-15T16:16:12.768Z,101059.87
2018-05-15T16:18:42.090Z,101067.14
2018-05-15T16:21:11.314Z,101062.08
2018-05-15T16:23:40.304Z,101060.28
2018-05-15T16:26:09.312Z,101057.30
2018-05-15T16:28:38.522Z,101058.03
2018-05-15T16:31:07.615Z,101062.28
2018-05-15T16:33:36.639Z,101057.70
2018-05-15T16:36:06.061Z,101064.34
2018-05-15T16:38:35.455Z,101060.87
2018-05-15T16:41:05.218Z,101061.30
2018-05-15T16:43:34.302Z,101057.45
2018-05-15T16:46:03.417Z,101058.55
2018-05-15T16:48:32.680Z,101060.68
2018-05-15T16:51:01.820Z,101064.50
2018-05-15T16:53:30.917Z,101059.12
2018-05-15T16:56:00.142Z,101056.42
2018-05-15T16:58:29.277Z,101060.55
2018-05-15T17:00:58.593Z,101060.87
2018-05-15T17:03:27.602Z,101057.78
2018-05-15T17:05:56.608Z,101060.44
2018-05-15T17:08:25.651Z,101054.53
2018-05-15T17:10:54.612Z,101060.70
2018-05-15T17:13:23.812Z,101055.53
2018-05-15T17:15:52.938Z,101058.28
2018-05-15T17:18:21.968Z,101059.42
2018-05-15T17:20:50.929Z,101049.42
2018-05-15T17:23:20.060Z,101043.11
2018-05-15T17:25:49.115Z,101053.98
2018-05-15T17:28:18.273Z,101050.55
2018-05-15T17:30:47.482Z,101062.10
2018-05-15T17:33:16.585Z,101054.41
2018-05-15T17:35:45.508Z,101055.70
2018-05-15T17:38:14.694Z,101054.55
2018-05-15T17:40:43.842Z,101051.12
2018-05-15T17:43:12.977Z,101055.05
2018-05-15T17:45:42.158Z,101056.94
2018-05-15T17:48:11.274Z,101052.51
2018-05-15T17:50:40.378Z,101057.66
2018-05-15T17:53:09.532Z,101058.97
2018-05-15T17:55:39.012Z,101046.72
2018-05-15T17:58:08.282Z,101046.47
2018-05-15T18:00:37.533Z,101046.15
2018-05-15T18:03:06.784Z,101051.30
2018-05-15T18:05:35.922Z,101045.52
2018-05-15T18:08:05.057Z,101045.05
2018-05-15T18:10:34.074Z,101039.96
2018-05-15T18:13:03.120Z,101050.61
2018-05-15T18:15:32.286Z,101056.62
2018-05-15T18:18:01.401Z,101058.17
2018-05-15T18:20:30.513Z,101063.74
2018-05-15T18:22:59.617Z,101056.92
2018-05-15T18:25:28.664Z,101056.55
2018-05-15T18:27:57.779Z,101064.34
2018-05-15T18:30:26.818Z,101071.33
2018-05-15T18:32:55.861Z,101074.61
2018-05-15T18:35:25.098Z,101081.17
2018-05-15T18:37:54.475Z,101081.09
2018-05-15T18:40:23.812Z,101074.02
2018-05-15T18:42:53.783Z,101081.16
2018-05-15T18:45:23.512Z,101083.47
2018-05-15T18:47:52.583Z,101079.66
2018-05-15T18:50:21.656Z,101083.98
2018-05-15T18:52:50.656Z,101079.95
2018-05-15T18:55:19.970Z,101085.28
2018-05-15T18:57:49.004Z,101086.26
2018-05-15T19:00:18.264Z,101084.95
2018-05-15T19:02:47.571Z,101091.45
2018-05-15T19:05:17.346Z,101089.16
2018-05-15T19:07:46.645Z,101088.95
2018-05-15T19:10:16.004Z,101092.55
2018-05-15T19:12:45.464Z,101090.34
2018-05-15T19:15:14.914Z,101091.48
2018-05-15T19:17:43.931Z,101090.38
2018-05-15T19:20:13.202Z,101081.68
2018-05-15T19:22:42.211Z,101089.33
2018-05-15T19:25:11.390Z,101092.78
2018-05-15T19:27:40.564Z,101103.67
2018-05-15T19:30:09.697Z,101100.23
2018-05-15T19:32:39.146Z,101100.52
2018-05-15T19:35:08.452Z,101104.02
2018-05-15T19:37:37.472Z,101101.37
2018-05-15T19:40:13.019Z,101096.06
2018-05-15T19:42:42.164Z,101100.46
2018-05-15T19:45:11.502Z,101100.73
2018-05-15T19:47:40.722Z,101104.76
2018-05-15T19:50:09.732Z,101105.13
2018-05-15T19:52:38.780Z,101105.83
2018-05-15T19:55:08.185Z,101106.47
2018-05-15T19:57:37.204Z,101113.73
2018-05-15T20:00:06.179Z,101113.45
2018-05-15T20:02:35.406Z,101113.55
2018-05-15T20:05:04.545Z,101108.97
2018-05-15T20:07:33.792Z,101118.61
2018-05-15T20:10:03.005Z,101115.33
2018-05-15T20:12:32.084Z,101122.55
2018-05-15T20:15:01.274Z,101126.50
2018-05-15T20:17:30.336Z,101126.88
2018-05-15T20:19:59.966Z,101117.97
2018-05-15T20:22:28.978Z,101120.66
2018-05-15T20:24:57.932Z,101125.14
2018-05-15T20:27:27.226Z,101123.12
2018-05-15T20:29:56.316Z,101126.36
2018-05-15T20:32:25.328Z,101116.63
2018-05-15T20:34:54.500Z,101123.25
2018-05-15T20:37:23.850Z,101124.02
2018-05-15T20:39:53.312Z,101126.05
2018-05-15T20:42:22.401Z,101123.69
2018-05-15T20:44:51.496Z,101118.25
2018-05-15T20:47:20.746Z,101115.64
2018-05-15T20:49:49.856Z,101104.80
2018-05-15T20:52:18.948Z,101104.48
2018-05-15T20:54:48.323Z,101102.63
2018-05-15T20:57:17.646Z,101095.04
2018-05-15T20:59:46.786Z,101090.46
2018-05-15T21:02:15.951Z,101097.01
2018-05-15T21:04:45.084Z,101085.66
2018-05-15T21:07:14.272Z,101091.53
2018-05-15T21:09:43.243Z,101087.83
2018-05-15T21:12:12.480Z,101088.37
2018-05-15T21:14:41.894Z,101080.44
2018-05-15T21:17:11.018Z,101070.66
2018-05-15T21:19:40.396Z,101066.83
2018-05-15T21:22:10.211Z,101060.25
2018-05-15T21:24:39.278Z,101063.36
2018-05-15T21:27:08.364Z,101072.16
2018-05-15T21:29:37.586Z,101063.30
2018-05-15T21:32:06.842Z,101055.58
2018-05-15T21:34:36.258Z,101056.88
2018-05-15T21:37:05.646Z,101056.78
2018-05-15T21:39:34.848Z,101067.53
2018-05-15T21:42:03.973Z,101060.92
2018-05-15T21:44:33.346Z,101058.20
2018-05-15T21:47:04.050Z,101055.62
2018-05-15T21:49:33.226Z,101053.33
2018-05-15T21:52:02.291Z,101052.36
2018-05-15T21:54:31.223Z,101050.80
2018-05-15T21:57:00.419Z,101053.58
2018-05-15T21:59:29.481Z,101056.31
2018-05-15T22:01:58.671Z,101056.74
2018-05-15T22:04:27.921Z,101053.33
2018-05-15T22:06:57.027Z,101053.96
2018-05-15T22:09:26.111Z,101052.89
2018-05-15T22:12:06.730Z,101051.81
2018-05-15T22:14:53.286Z,101054.66
2018-05-15T22:17:39.711Z,101039.84
2018-05-15T22:20:25.925Z,101047.28
2018-05-15T22:23:00.000Z,101048.48
2018-05-15T22:25:28.748Z,101037.58
2018-05-15T22:27:58.069Z,101037.53
2018-05-15T22:30:27.485Z,101040.22
2018-05-15T22:32:56.673Z,101034.25
2018-05-15T22:35:25.872Z,101031.04
2018-05-15T22:37:54.908Z,101026.41
2018-05-15T22:40:24.290Z,101020.36
2018-05-15T22:42:53.680Z,101017.48
2018-05-15T22:45:22.694Z,101014.05
2018-05-15T22:47:51.974Z,101029.02
2018-05-15T22:50:21.110Z,101018.28
2018-05-15T22:52:50.541Z,101008.88
2018-05-15T22:55:19.868Z,101022.45
2018-05-15T22:57:48.873Z,101029.51
2018-05-15T23:00:18.104Z,101026.53
2018-05-15T23:02:47.204Z,101035.41
2018-05-15T23:05:16.561Z,101030.95
2018-05-15T23:07:45.640Z,101024.86
2018-05-15T23:10:14.718Z,101019.58
2018-05-15T23:12:43.957Z,101015.98
2018-05-15T23:15:13.006Z,101008.87
2018-05-15T23:17:42.075Z,101014.30
2018-05-15T23:20:11.212Z,101017.25
2018-05-15T23:22:43.233Z,101011.59
2018-05-15T23:25:12.546Z,101016.05
2018-05-15T23:27:41.832Z,101021.21
2018-05-15T23:30:10.839Z,101017.13
2018-05-15T23:32:39.860Z,101001.34
2018-05-15T23:35:09.227Z,101001.88
2018-05-15T23:37:38.448Z,101002.78
2018-05-15T23:40:07.691Z,101001.62
2018-05-15T23:42:37.076Z,100996.98
2018-05-15T23:45:06.230Z,100992.73
2018-05-15T23:47:35.637Z,101000.14
2018-05-15T23:50:04.922Z,100990.40
2018-05-15T23:52:34.073Z,100998.91
2018-05-15T23:55:03.589Z,101003.19
2018-05-15T23:57:32.826Z,101009.16
